Time;durP1;ratioP1;P1;durP2;ratioP2;P2;SDS_P1;SDS_P2;PMS_P1;PMS_P2;Temp;Humidity;BMP_temperature;BMP_pressure;BME280_temperature;BME280_humidity;BME280_pressure;Samples;Min_cycle;Max_cycle;Signal;HPM_P1;HPM_P2
2020/12/31 00:00:25;;;;;;;10.23;4.50;;;;;;;1.91;100.00;96699.88;4981093;28;20050;-79
2020/12/31 00:03:12;;;;;;;7.65;3.95;;;;;;;1.96;100.00;96705.97;5012538;28;20048;-79
2020/12/31 00:05:53;;;;;;;7.88;4.10;;;;;;;1.80;100.00;96685.84;4979115;28;20093;-79
2020/12/31 00:08:45;;;;;;;9.60;3.50;;;;;;;1.88;100.00;96711.91;5010739;28;20038;-79
2020/12/31 00:11:42;;;;;;;8.80;3.58;;;;;;;1.98;100.00;96703.00;4993168;28;20038;-79
2020/12/31 00:14:22;;;;;;;8.60;4.10;;;;;;;2.04;100.00;96704.56;5006645;28;20068;-79
2020/12/31 00:20:09;;;;;;;12.02;4.30;;;;;;;2.13;100.00;96724.19;5014088;28;20413;-79
2020/12/31 00:22:36;;;;;;;5.93;3.50;;;;;;;1.87;100.00;96687.09;5008375;28;20137;-79
2020/12/31 00:25:13;;;;;;;10.60;3.97;;;;;;;1.92;100.00;96704.91;5005835;28;20046;-79
2020/12/31 00:27:58;;;;;;;9.80;4.10;;;;;;;1.74;100.00;96694.97;5008617;28;20176;-80
2020/12/31 00:30:40;;;;;;;6.22;3.78;;;;;;;1.66;100.00;96706.22;5010160;28;20045;-79
2020/12/31 00:33:29;;;;;;;6.20;3.58;;;;;;;1.81;100.00;96730.09;5018961;28;20105;-80
2020/12/31 00:36:04;;;;;;;7.22;4.07;;;;;;;1.48;100.00;96702.38;5007736;28;20244;-79
2020/12/31 00:38:51;;;;;;;;;;;;;;;;;;;;;
2020/12/31 00:41:26;;;;;;;8.30;3.95;;;;;;;1.38;100.00;96701.66;4989883;28;20358;-78
2020/12/31 00:44:06;;;;;;;7.15;3.60;;;;;;;1.38;100.00;96704.34;4989941;28;20131;-78
2020/12/31 00:46:35;;;;;;;6.80;3.42;;;;;;;1.51;100.00;96733.84;4971310;28;20049;-78
2020/12/31 00:49:05;;;;;;;6.20;3.97;;;;;;;1.47;100.00;96719.44;5020615;28;20577;-78
2020/12/31 00:51:34;;;;;;;8.75;3.80;;;;;;;1.41;100.00;96704.59;4987685;28;20065;-79
2020/12/31 00:54:04;;;;;;;10.93;3.88;;;;;;;1.54;100.00;96727.94;4988369;28;20068;-79
2020/12/31 00:56:30;;;;;;;8.65;4.65;;;;;;;1.58;100.00;96733.50;4973249;28;20195;-78
2020/12/31 00:58:57;;;;;;;7.78;3.65;;;;;;;1.62;100.00;96737.22;5001558;28;20060;-79
2020/12/31 01:01:23;;;;;;;5.95;3.90;;;;;;;1.70;100.00;96740.06;5003603;28;20038;-78
2020/12/31 01:03:49;;;;;;;6.88;3.80;;;;;;;1.85;100.00;96747.16;5002137;28;20038;-78
2020/12/31 01:06:16;;;;;;;9.15;3.88;;;;;;;1.94;100.00;96737.44;5003986;28;20116;-78
2020/12/31 01:08:42;;;;;;;5.70;3.88;;;;;;;1.97;100.00;96731.56;5013117;28;20057;-79
2020/12/31 01:11:08;;;;;;;9.32;3.85;;;;;;;2.04;100.00;96740.00;4987742;28;20065;-78
2020/12/31 01:13:35;;;;;;;8.52;3.67;;;;;;;2.07;100.00;96739.47;5012441;23;20140;-76
2020/12/31 01:16:01;;;;;;;8.25;3.95;;;;;;;2.12;100.00;96743.94;5009986;28;20061;-77
2020/12/31 01:18:27;;;;;;;7.90;3.42;;;;;;;2.11;100.00;96739.69;5009673;28;20072;-77
2020/12/31 01:20:55;;;;;;;6.57;3.55;;;;;;;2.15;100.00;96746.84;5011823;28;20065;-78
2020/12/31 01:23:22;;;;;;;6.32;3.40;;;;;;;2.19;100.00;96739.09;5010521;28;20128;-77
2020/12/31 01:25:51;;;;;;;7.75;3.80;;;;;;;2.26;100.00;96745.69;5011550;28;20129;-77
2020/12/31 01:28:18;;;;;;;7.97;3.67;;;;;;;2.22;100.00;96733.97;5010401;28;20516;-76
2020/12/31 01:30:44;;;;;;;6.75;3.70;;;;;;;2.22;100.00;96736.63;5011135;28;20385;-76
2020/12/31 01:33:11;;;;;;;5.57;3.28;;;;;;;2.23;100.00;96727.56;5009429;28;20378;-76
2020/12/31 01:35:37;;;;;;;6.80;3.53;;;;;;;2.26;100.00;96728.84;5011191;28;20137;-77
2020/12/31 01:38:04;;;;;;;5.90;3.33;;;;;;;2.22;100.00;96731.28;4993518;28;20544;-76
2020/12/31 01:40:30;;;;;;;7.47;3.53;;;;;;;2.18;100.00;96722.25;5010855;28;20050;-77
2020/12/31 01:42:59;;;;;;;7.32;3.70;;;;;;;2.08;100.00;96726.91;5011061;28;20048;-76
2020/12/31 01:45:25;;;;;;;6.82;3.55;;;;;;;2.01;100.00;96737.13;4989935;28;20045;-77
2020/12/31 01:47:53;;;;;;;9.02;4.00;;;;;;;1.96;100.00;96740.66;5029845;28;20123;-77
2020/12/31 01:50:19;;;;;;;7.45;3.35;;;;;;;1.83;100.00;96730.63;5028455;28;20494;-77
2020/12/31 01:52:48;;;;;;;5.68;3.17;;;;;;;1.76;100.00;96741.63;5010806;28;20129;-77
2020/12/31 01:55:14;;;;;;;6.15;3.53;;;;;;;1.70;100.00;96752.63;5010203;28;20053;-75
2020/12/31 01:57:41;;;;;;;5.47;3.65;;;;;;;1.70;100.00;96755.28;4993140;28;20041;-76
2020/12/31 02:00:10;;;;;;;7.50;4.05;;;;;;;1.67;100.00;96756.66;5010578;28;20068;-78
2020/12/31 02:02:36;;;;;;;10.00;3.72;;;;;;;1.53;100.00;96739.69;5010485;28;20077;-76
2020/12/31 02:05:02;;;;;;;7.30;4.07;;;;;;;1.46;100.00;96749.06;5010835;28;20057;-77
2020/12/31 02:07:29;;;;;;;6.05;3.92;;;;;;;1.49;100.00;96752.00;5010078;28;20052;-77
2020/12/31 02:09:55;;;;;;;6.28;3.60;;;;;;;1.41;100.00;96760.59;5008753;28;20421;-77
2020/12/31 02:12:22;;;;;;;6.38;3.72;;;;;;;1.42;100.00;96754.16;5009035;28;20444;-77
2020/12/31 02:14:52;;;;;;;8.63;4.30;;;;;;;1.46;100.00;96759.75;5009958;28;20058;-77
2020/12/31 02:17:19;;;;;;;6.15;4.07;;;;;;;1.45;100.00;96758.13;5008727;28;20438;-77
2020/12/31 02:19:45;;;;;;;8.55;4.45;;;;;;;1.36;100.00;96755.28;5010960;28;20409;-77
2020/12/31 02:22:13;;;;;;;6.75;4.13;;;;;;;1.40;100.00;96768.84;5009215;28;20056;-76
2020/12/31 02:24:39;;;;;;;7.65;4.18;;;;;;;1.39;100.00;96767.25;5009886;28;20505;-76
2020/12/31 02:27:06;;;;;;;7.32;3.90;;;;;;;1.34;100.00;96764.63;5010017;28;20045;-77
2020/12/31 02:29:32;;;;;;;7.07;4.40;;;;;;;1.32;100.00;96769.44;4991787;28;20136;-77
2020/12/31 02:31:59;;;;;;;6.97;3.83;;;;;;;1.30;100.00;96767.03;5008964;28;20045;-76
2020/12/31 02:34:26;;;;;;;9.07;4.28;;;;;;;1.23;100.00;96774.56;5008410;28;20042;-78
2020/12/31 02:36:52;;;;;;;9.85;4.03;;;;;;;1.25;100.00;96778.53;5012272;28;20112;-76
2020/12/31 02:39:19;;;;;;;10.00;4.00;;;;;;;1.29;100.00;96772.66;5003869;28;20144;-79
2020/12/31 02:41:46;;;;;;;6.57;3.85;;;;;;;1.21;100.00;96776.72;5008017;28;20151;-76
2020/12/31 02:44:12;;;;;;;8.35;3.65;;;;;;;1.16;100.00;96774.09;5031668;28;20049;-76
2020/12/31 02:47:03;;;;;;;6.57;4.13;;;;;;;1.07;100.00;96779.19;5031544;28;20069;-76
2020/12/31 02:49:29;;;;;;;5.40;3.30;;;;;;;0.99;100.00;96784.28;4996574;28;20056;-77
2020/12/31 02:51:58;;;;;;;7.20;4.50;;;;;;;0.95;100.00;96776.06;5030390;28;20041;-77
2020/12/31 02:54:24;;;;;;;7.40;4.72;;;;;;;0.93;100.00;96778.19;5029209;28;20037;-78
2020/12/31 02:56:50;;;;;;;7.78;4.07;;;;;;;0.84;100.00;96774.50;5029376;28;20053;-75
2020/12/31 02:59:17;;;;;;;8.07;4.70;;;;;;;0.78;100.00;96772.94;5029798;28;20095;-77
2020/12/31 03:01:43;;;;;;;9.23;4.65;;;;;;;0.73;100.00;96772.16;5030290;28;20124;-75
2020/12/31 03:04:09;;;;;;;6.90;4.40;;;;;;;0.59;100.00;96771.97;5029819;28;20049;-77
2020/12/31 03:06:36;;;;;;;9.15;4.72;;;;;;;0.57;100.00;96777.53;5011493;28;20428;-75
2020/12/31 03:09:03;;;;;;;9.57;5.15;;;;;;;0.59;100.00;96766.63;5010736;28;20045;-76
2020/12/31 03:11:29;;;;;;;9.30;5.05;;;;;;;0.52;100.00;96774.09;5029843;28;20045;-78
2020/12/31 03:13:56;;;;;;;10.82;5.57;;;;;;;0.50;100.00;96770.91;5016097;28;20045;-77
2020/12/31 03:16:22;;;;;;;9.65;5.57;;;;;;;0.50;100.00;96785.03;4991716;28;20064;-76
2020/12/31 03:18:48;;;;;;;10.55;5.45;;;;;;;0.47;100.00;96785.56;4989177;28;20076;-77
2020/12/31 03:21:15;;;;;;;10.15;5.78;;;;;;;0.47;100.00;96774.09;4994767;28;20137;-77
2020/12/31 03:23:42;;;;;;;9.32;5.35;;;;;;;0.42;100.00;96774.94;4989105;28;20043;-77
2020/12/31 03:26:08;;;;;;;10.35;5.93;;;;;;;0.38;100.00;96767.78;4995226;28;20037;-77
2020/12/31 03:28:35;;;;;;;9.35;5.43;;;;;;;0.38;100.00;96765.91;5009490;28;20116;-78
2020/12/31 03:31:02;;;;;;;10.65;5.90;;;;;;;0.34;100.00;96766.69;4992059;28;20038;-77
2020/12/31 03:33:29;;;;;;;9.80;5.88;;;;;;;0.32;100.00;96768.84;5007842;28;20080;-78
2020/12/31 03:35:55;;;;;;;7.75;5.13;;;;;;;0.29;100.00;96761.38;4998836;28;20292;-77
2020/12/31 03:38:22;;;;;;;11.20;5.18;;;;;;;0.28;100.00;96765.13;5010333;28;20054;-78
2020/12/31 03:40:49;;;;;;;10.32;5.43;;;;;;;0.23;100.00;96767.81;5009736;28;20049;-77
2020/12/31 03:43:15;;;;;;;9.55;5.00;;;;;;;0.16;100.00;96765.41;5010714;28;20049;-77
2020/12/31 03:45:42;;;;;;;11.23;5.47;;;;;;;0.16;100.00;96765.41;4994846;28;20049;-78
2020/12/31 03:48:09;;;;;;;8.45;5.13;;;;;;;0.12;100.00;96768.91;4996328;28;20052;-77
2020/12/31 03:50:35;;;;;;;10.48;5.43;;;;;;;0.09;100.00;96769.44;5013413;28;20042;-78
2020/12/31 03:53:02;;;;;;;8.35;5.43;;;;;;;0.10;100.00;96766.50;5013112;28;20077;-77
2020/12/31 03:55:29;;;;;;;10.00;5.53;;;;;;;0.08;100.00;96770.50;5013143;28;20046;-77
2020/12/31 03:57:55;;;;;;;8.52;5.30;;;;;;;0.03;100.00;96765.19;5013142;28;20045;-77
2020/12/31 04:00:21;;;;;;;7.55;5.07;;;;;;;0.05;100.00;96768.38;5013365;28;20050;-77
2020/12/31 04:02:48;;;;;;;8.57;5.57;;;;;;;0.10;100.00;96771.84;5013147;28;20045;-77
2020/12/31 04:05:15;;;;;;;8.98;5.32;;;;;;;0.20;100.00;96761.16;5012705;28;20125;-77
2020/12/31 04:07:41;;;;;;;10.48;5.35;;;;;;;0.25;100.00;96768.34;5012820;28;20050;-77
2020/12/31 04:10:07;;;;;;;9.23;5.82;;;;;;;0.31;100.00;96757.38;5011548;28;20049;-78
2020/12/31 04:12:33;;;;;;;8.90;5.60;;;;;;;0.40;100.00;96766.44;5012667;28;20326;-77
2020/12/31 04:15:00;;;;;;;10.40;5.50;;;;;;;0.36;100.00;96761.91;5011142;28;20096;-77
2020/12/31 04:17:26;;;;;;;10.00;4.95;;;;;;;0.35;100.00;96762.97;5012543;28;20041;-77
2020/12/31 04:19:53;;;;;;;8.93;5.32;;;;;;;0.45;100.00;96753.09;5012524;28;20042;-77
2020/12/31 04:22:19;;;;;;;7.38;4.68;;;;;;;0.42;100.00;96744.84;5011688;28;20046;-76
2020/12/31 04:24:46;;;;;;;6.70;4.72;;;;;;;0.31;100.00;96745.97;5006354;28;20044;-78
2020/12/31 04:27:12;;;;;;;9.98;5.15;;;;;;;0.30;100.00;96744.38;4992255;28;20046;-78
2020/12/31 04:29:39;;;;;;;10.50;5.15;;;;;;;0.24;100.00;96745.44;4993239;28;20050;-77
2020/12/31 04:32:05;;;;;;;10.77;5.82;;;;;;;0.22;100.00;96747.56;4992953;28;20042;-77
2020/12/31 04:34:31;;;;;;;11.27;6.20;;;;;;;0.29;100.00;96748.09;4958576;28;20077;-76
2020/12/31 04:36:57;;;;;;;11.95;6.28;;;;;;;0.28;100.00;96741.19;5004048;28;20060;-76
2020/12/31 04:39:24;;;;;;;9.73;5.80;;;;;;;0.21;100.00;96740.66;5012061;28;20050;-78
2020/12/31 04:41:56;;;;;;;9.52;5.60;;;;;;;0.18;100.00;96749.97;4995049;28;20201;-77
2020/12/31 04:44:23;;;;;;;10.45;6.50;;;;;;;0.08;100.00;96752.66;5011690;28;20053;-78
2020/12/31 04:46:54;;;;;;;10.27;6.07;;;;;;;0.08;100.00;96751.88;5011965;28;20137;-78
2020/12/31 04:49:26;;;;;;;10.68;6.25;;;;;;;0.06;100.00;96757.47;4994949;28;20054;-77
2020/12/31 04:51:54;;;;;;;10.40;6.30;;;;;;;0.12;100.00;96763.56;5013112;28;20511;-76
2020/12/31 04:54:21;;;;;;;11.20;6.60;;;;;;;0.18;100.00;96759.84;5010703;28;20526;-77
2020/12/31 04:56:47;;;;;;;10.23;6.45;;;;;;;0.19;100.00;96748.13;5011695;28;20061;-77
2020/12/31 04:59:14;;;;;;;11.20;6.57;;;;;;;0.28;100.00;96763.28;5012265;28;20038;-78
2020/12/31 05:01:43;;;;;;;11.77;5.93;;;;;;;0.26;100.00;96761.97;5010199;28;20037;-78
2020/12/31 05:04:10;;;;;;;9.73;5.88;;;;;;;0.45;100.00;96757.63;5012689;28;20042;-77
2020/12/31 05:06:38;;;;;;;9.95;5.47;;;;;;;0.47;100.00;96764.25;5016606;28;20046;-78
2020/12/31 05:09:18;;;;;;;10.35;5.88;;;;;;;0.53;100.00;96770.38;5014594;28;20046;-77
2020/12/31 05:11:51;;;;;;;9.23;5.50;;;;;;;0.50;100.00;96760.25;5012262;28;20054;-76
2020/12/31 05:14:28;;;;;;;9.68;5.20;;;;;;;0.54;100.00;96769.31;4993909;28;20394;-77
2020/12/31 05:16:55;;;;;;;9.18;5.40;;;;;;;0.54;100.00;96764.00;5011676;28;20046;-78
2020/12/31 05:19:24;;;;;;;9.88;5.22;;;;;;;0.55;100.00;96760.25;5010260;28;20053;-77
2020/12/31 05:22:14;;;;;;;9.20;5.22;;;;;;;0.65;100.00;96770.06;4994925;28;20038;-77
2020/12/31 05:24:44;;;;;;;9.13;5.10;;;;;;;0.73;100.00;96759.63;5010695;28;20046;-77
2020/12/31 05:27:21;;;;;;;9.65;5.18;;;;;;;0.72;100.00;96765.25;4993437;28;20049;-77
2020/12/31 05:30:07;;;;;;;9.50;4.80;;;;;;;0.72;100.00;96771.38;5010400;28;20049;-77
2020/12/31 05:32:36;;;;;;;7.60;4.78;;;;;;;0.68;100.00;96761.53;5010780;28;20041;-77
2020/12/31 05:35:09;;;;;;;7.78;4.75;;;;;;;0.71;100.00;96764.44;5009481;28;20520;-78
2020/12/31 05:37:36;;;;;;;8.30;4.75;;;;;;;0.73;100.00;96764.16;5010712;28;20405;-77
2020/12/31 05:40:05;;;;;;;7.45;4.60;;;;;;;0.72;100.00;96767.91;5012391;28;20409;-77
2020/12/31 05:42:34;;;;;;;6.72;4.40;;;;;;;0.73;100.00;96775.63;5030141;28;20404;-76
2020/12/31 05:45:16;;;;;;;11.63;4.68;;;;;;;0.74;100.00;96768.44;4990992;28;20058;-78
2020/12/31 05:47:50;;;;;;;9.43;4.50;;;;;;;0.74;100.00;96758.56;4992311;28;20046;-76
2020/12/31 05:50:18;;;;;;;8.50;4.60;;;;;;;0.71;100.00;96775.09;4991250;28;20057;-77
2020/12/31 05:52:44;;;;;;;8.43;4.18;;;;;;;0.76;100.00;96771.59;4996169;28;20038;-75
2020/12/31 05:55:11;;;;;;;7.65;4.15;;;;;;;0.78;100.00;96754.28;5008634;28;20049;-77
2020/12/31 05:57:55;;;;;;;6.18;3.58;;;;;;;0.87;100.00;96763.31;5015706;28;20065;-77
2020/12/31 06:00:22;;;;;;;5.43;3.80;;;;;;;0.89;100.00;96761.16;5010845;28;20053;-77
2020/12/31 06:02:51;;;;;;;6.18;3.30;;;;;;;0.83;100.00;96756.91;5010644;28;20046;-76
2020/12/31 06:05:19;;;;;;;5.30;3.30;;;;;;;0.81;100.00;96766.25;4992813;28;20049;-77
2020/12/31 06:07:48;;;;;;;5.22;2.90;;;;;;;0.84;100.00;96769.19;5010368;28;20367;-76
2020/12/31 06:10:28;;;;;;;5.05;3.00;;;;;;;0.82;100.00;96768.66;4990438;28;20038;-77
2020/12/31 06:13:01;;;;;;;4.78;2.95;;;;;;;0.75;100.00;96756.72;4995319;28;20050;-77
2020/12/31 06:15:36;;;;;;;6.22;2.95;;;;;;;0.83;100.00;96770.25;4995162;28;20054;-77
2020/12/31 06:18:05;;;;;;;4.40;2.38;;;;;;;0.80;100.00;96764.69;4991448;28;20081;-76
2020/12/31 06:20:38;;;;;;;5.25;2.88;;;;;;;0.80;100.00;96762.78;4975385;28;20049;-76
2020/12/31 06:23:10;;;;;;;5.13;3.03;;;;;;;0.77;100.00;96771.34;4995597;28;20117;-76
2020/12/31 06:25:40;;;;;;;7.05;3.33;;;;;;;0.74;100.00;96761.25;5022078;28;20457;-77
2020/12/31 06:28:10;;;;;;;6.15;3.03;;;;;;;0.70;100.00;96773.50;5007553;28;20069;-76
2020/12/31 06:30:39;;;;;;;5.43;3.47;;;;;;;0.71;100.00;96787.63;5027220;28;20052;-77
2020/12/31 06:33:40;;;;;;;4.70;3.15;;;;;;;0.68;100.00;96775.63;5031158;28;20453;-76
2020/12/31 06:36:06;;;;;;;6.47;3.22;;;;;;;0.60;100.00;96786.84;5023934;28;20580;-77
2020/12/31 06:38:43;;;;;;;4.18;2.67;;;;;;;0.59;100.00;96785.28;5034971;28;20048;-76
2020/12/31 06:41:53;;;;;;;6.40;2.90;;;;;;;0.57;100.00;96784.72;5037677;28;20050;-76
2020/12/31 06:44:20;;;;;;;3.63;2.40;;;;;;;0.51;100.00;96772.53;4958913;29;20031;-77
2020/12/31 06:46:48;;;;;;;4.10;2.70;;;;;;;0.61;100.00;96788.44;4957031;29;20059;-74
2020/12/31 06:49:15;;;;;;;5.57;3.30;;;;;;;0.62;100.00;96790.03;4987337;28;20068;-77
2020/12/31 06:51:42;;;;;;;5.60;2.60;;;;;;;0.66;100.00;96796.44;5004094;28;20052;-78
2020/12/31 06:54:11;;;;;;;5.20;2.90;;;;;;;0.61;100.00;96796.44;5010275;28;20049;-77
2020/12/31 06:56:49;;;;;;;6.95;3.35;;;;;;;0.53;100.00;96791.69;5012948;28;20129;-77
2020/12/31 06:59:25;;;;;;;4.53;2.80;;;;;;;0.61;100.00;96807.91;5012443;28;20493;-77
2020/12/31 07:01:51;;;;;;;4.97;3.05;;;;;;;0.61;100.00;96804.44;5010361;28;20057;-77
2020/12/31 07:04:35;;;;;;;8.82;2.80;;;;;;;0.58;100.00;96813.75;5008828;28;20077;-77
2020/12/31 07:07:20;;;;;;;4.47;2.92;;;;;;;0.58;100.00;96807.63;5011646;28;20057;-76
2020/12/31 07:09:59;;;;;;;5.05;2.58;;;;;;;0.52;100.00;96803.38;5008235;28;20037;-76
2020/12/31 07:12:33;;;;;;;5.38;3.30;;;;;;;0.50;100.00;96805.53;5009559;28;20461;-75
2020/12/31 07:15:17;;;;;;;4.13;2.67;;;;;;;0.37;100.00;96790.13;5031768;23;20311;-78
2020/12/31 07:17:50;;;;;;;5.00;3.03;;;;;;;0.36;100.00;96804.50;5020046;28;20137;-78
2020/12/31 07:20:20;;;;;;;5.25;3.20;;;;;;;0.23;100.00;96795.22;5012138;28;20120;-77
2020/12/31 07:23:06;;;;;;;7.38;3.40;;;;;;;0.13;100.00;96797.09;4996505;28;20524;-77
2020/12/31 07:25:43;;;;;;;6.63;3.45;;;;;;;0.26;100.00;96823.16;5014326;28;20058;-77
2020/12/31 07:28:19;;;;;;;7.25;4.10;;;;;;;0.14;100.00;96810.13;5009994;28;20058;-77
2020/12/31 07:31:02;;;;;;;7.38;3.85;;;;;;;0.06;100.00;96801.88;4994005;28;20450;-77
2020/12/31 07:33:37;;;;;;;6.32;3.95;;;;;;;0.04;100.00;96801.34;4990254;28;20046;-81
2020/12/31 07:36:35;;;;;;;11.35;4.28;;;;;;;0.01;100.00;96797.38;4996865;28;20046;-79
2020/12/31 07:39:07;;;;;;;7.57;4.22;;;;;;;0.02;100.00;96803.50;5011995;28;20113;-80
2020/12/31 07:42:19;;;;;;;7.28;4.38;;;;;;;-0.07;100.00;96796.06;5012687;28;20489;-79
2020/12/31 07:44:57;;;;;;;5.75;4.00;;;;;;;0.05;100.00;96803.78;4973494;28;20043;-77
2020/12/31 07:47:30;;;;;;;7.57;4.05;;;;;;;0.09;100.00;96819.97;4990916;28;20043;-78
2020/12/31 07:49:58;;;;;;;5.95;3.53;;;;;;;0.02;100.00;96806.97;4969961;28;20073;-77
2020/12/31 07:52:30;;;;;;;7.75;4.43;;;;;;;0.10;100.00;96806.41;5006301;28;20045;-77
2020/12/31 07:55:03;;;;;;;8.10;4.05;;;;;;;0.22;100.00;96820.22;5007786;28;20045;-77
2020/12/31 07:57:32;;;;;;;8.18;4.00;;;;;;;0.19;100.00;96809.31;5009486;28;20067;-77
2020/12/31 08:00:11;;;;;;;6.70;4.20;;;;;;;0.44;100.00;96835.91;4973582;28;20046;-77
2020/12/31 08:03:03;;;;;;;8.10;4.50;;;;;;;0.35;100.00;96808.22;4998258;28;20092;-77
2020/12/31 08:05:32;;;;;;;9.57;4.20;;;;;;;0.57;100.00;96809.50;5002774;28;20454;-79
2020/12/31 08:08:16;;;;;;;6.82;4.28;;;;;;;0.61;100.00;96804.44;5004616;28;20054;-76
2020/12/31 08:10:43;;;;;;;9.57;3.78;;;;;;;0.87;100.00;96818.44;4998258;28;20038;-79
2020/12/31 08:13:15;;;;;;;11.93;4.30;;;;;;;1.00;100.00;96818.66;5008039;28;20505;-77
2020/12/31 08:15:57;;;;;;;9.45;4.55;;;;;;;1.17;100.00;96797.78;5009746;28;20571;-79
2020/12/31 08:18:25;;;;;;;7.65;3.80;;;;;;;1.81;100.00;96816.28;5010347;28;20041;-78
2020/12/31 08:21:05;;;;;;;8.40;4.18;;;;;;;1.97;100.00;96816.16;4993128;28;20102;-77
2020/12/31 08:24:10;;;;;;;7.18;3.63;;;;;;;2.75;100.00;96800.69;5009074;28;20053;-77
2020/12/31 08:27:17;;;;;;;5.70;3.28;;;;;;;4.18;100.00;96791.13;5010461;28;20139;-78
2020/12/31 08:30:02;;;;;;;6.85;2.97;;;;;;;5.36;100.00;96803.56;5009320;28;20154;-77
2020/12/31 08:32:49;;;;;;;6.55;3.72;;;;;;;6.99;100.00;96820.78;4993405;28;20045;-77
2020/12/31 08:35:32;;;;;;;5.90;3.20;;;;;;;7.35;100.00;96812.47;5029160;28;20441;-77
2020/12/31 08:38:01;;;;;;;8.52;3.75;;;;;;;7.13;100.00;96813.38;4993675;28;20067;-78
2020/12/31 08:40:50;;;;;;;5.35;3.25;;;;;;;7.20;100.00;96807.53;4976427;28;20042;-79
2020/12/31 08:43:31;;;;;;;6.65;3.13;;;;;;;5.92;100.00;96813.84;5001679;28;20120;-76
2020/12/31 08:45:58;;;;;;;6.13;3.75;;;;;;;4.67;100.00;96825.34;5011103;28;20125;-77
2020/12/31 08:48:25;;;;;;;9.10;4.00;;;;;;;3.56;100.00;96814.56;4991530;28;20042;-77
2020/12/31 08:51:28;;;;;;;9.30;3.65;;;;;;;3.33;100.00;96815.44;5003081;28;20430;-77
2020/12/31 08:54:02;;;;;;;5.22;3.38;;;;;;;3.46;100.00;96811.28;4961014;28;20046;-78
2020/12/31 08:56:32;;;;;;;4.97;3.00;;;;;;;4.39;100.00;96808.41;4992665;28;20413;-78
2020/12/31 08:59:08;;;;;;;6.20;3.15;;;;;;;5.85;100.00;96818.06;4990685;28;20153;-78
2020/12/31 09:01:34;;;;;;;7.93;2.90;;;;;;;6.23;100.00;96805.84;4997101;28;20056;-78
2020/12/31 09:04:07;;;;;;;7.22;2.88;;;;;;;6.85;100.00;96817.38;5003237;28;20069;-78
2020/12/31 09:06:34;;;;;;;12.30;2.88;;;;;;;6.88;100.00;96809.50;4994063;28;20050;-78
2020/12/31 09:09:03;;;;;;;4.90;2.90;;;;;;;6.88;100.00;96814.06;5012912;28;20069;-78
2020/12/31 09:11:29;;;;;;;3.80;2.50;;;;;;;6.64;100.00;96802.88;5012831;28;20524;-78
2020/12/31 09:14:06;;;;;;;4.53;3.00;;;;;;;6.55;100.00;96812.81;5014175;28;20050;-77
2020/12/31 09:16:33;;;;;;;4.00;2.40;;;;;;;6.63;100.00;96804.00;5014251;28;20057;-78
2020/12/31 09:19:02;;;;;;;3.95;2.60;;;;;;;7.23;100.00;96810.38;4979595;28;20046;-77
2020/12/31 09:21:29;;;;;;;4.35;2.67;;;;;;;6.76;100.00;96808.50;4977588;28;20053;-76
2020/12/31 09:24:14;;;;;;;4.22;2.80;;;;;;;7.54;100.00;96799.50;4994291;28;20038;-77
2020/12/31 09:26:51;;;;;;;4.72;2.90;;;;;;;6.72;100.00;96786.78;5006040;28;20596;-76
2020/12/31 09:29:18;;;;;;;4.90;3.30;;;;;;;7.01;100.00;96790.84;4990426;28;20043;-77
2020/12/31 09:31:44;;;;;;;5.55;3.47;;;;;;;6.39;100.00;96790.13;4974774;28;20568;-76
2020/12/31 09:34:11;;;;;;;7.13;4.00;;;;;;;5.97;100.00;96794.91;4991016;28;20330;-77
2020/12/31 09:36:37;;;;;;;5.63;3.83;;;;;;;6.34;100.00;96782.19;5001198;28;20046;-78
2020/12/31 09:39:04;;;;;;;7.53;4.00;;;;;;;6.03;100.00;96784.84;4993811;28;20050;-77
2020/12/31 09:41:30;;;;;;;8.20;4.35;;;;;;;7.55;100.00;96782.25;4978957;28;20413;-78
2020/12/31 09:43:56;;;;;;;7.55;3.63;;;;;;;8.57;100.00;96789.44;5001431;28;20521;-77
2020/12/31 09:46:23;;;;;;;5.63;3.65;;;;;;;9.14;77.19;96789.03;4974803;28;20038;-78
2020/12/31 09:48:50;;;;;;;5.80;3.63;;;;;;;9.81;71.10;96781.59;5007486;28;20049;-78
2020/12/31 09:51:21;;;;;;;6.25;3.47;;;;;;;10.51;67.86;96774.44;5006711;28;20048;-78
2020/12/31 09:53:51;;;;;;;5.68;3.33;;;;;;;-141.50;100.00;63355.56;4974192;28;20049;-78
2020/12/31 09:56:18;;;;;;;4.38;3.20;;;;;;;-141.50;100.00;63355.56;5003244;28;20397;-78
2020/12/31 09:58:44;;;;;;;5.70;3.40;;;;;;;-141.50;100.00;63355.56;4995295;28;20410;-77
2020/12/31 10:01:10;;;;;;;4.47;3.30;;;;;;;10.51;67.86;96774.44;5010232;28;20421;-77
2020/12/31 10:03:38;;;;;;;4.45;2.85;;;;;;;11.39;54.16;96766.47;5011325;28;20045;-78
2020/12/31 10:06:07;;;;;;;4.10;2.60;;;;;;;10.08;60.09;96761.34;4983299;28;20046;-77
2020/12/31 10:08:34;;;;;;;3.63;2.60;;;;;;;10.10;61.16;96763.69;4973865;28;20453;-78
2020/12/31 10:11:01;;;;;;;4.47;2.70;;;;;;;9.77;62.35;96758.28;4990370;28;20045;-78
2020/12/31 10:13:28;;;;;;;3.75;2.78;;;;;;;9.60;67.48;96756.47;4988665;28;20038;-78
2020/12/31 10:15:59;;;;;;;3.97;2.78;;;;;;;9.38;65.83;96748.72;4998151;28;20497;-78
2020/12/31 10:18:25;;;;;;;3.20;2.60;;;;;;;9.35;73.75;96741.25;5001783;28;20096;-76
2020/12/31 10:20:52;;;;;;;4.80;2.97;;;;;;;9.94;67.66;96755.41;5015759;28;20033;-77
2020/12/31 10:23:18;;;;;;;3.88;2.50;;;;;;;9.48;69.80;96744.81;5011567;28;20112;-76
2020/12/31 10:25:47;;;;;;;3.70;2.63;;;;;;;8.47;80.40;96752.03;5003818;28;20041;-76
2020/12/31 10:28:14;;;;;;;4.15;2.72;;;;;;;7.75;96.39;96745.78;5001407;28;20049;-77
2020/12/31 10:30:40;;;;;;;6.50;2.90;;;;;;;7.04;100.00;96744.50;5005038;28;20037;-77
2020/12/31 10:33:07;;;;;;;3.78;2.70;;;;;;;6.88;100.00;96739.56;5009284;28;20065;-78
2020/12/31 10:35:33;;;;;;;3.65;2.60;;;;;;;6.30;100.00;96744.38;5009421;28;20068;-77
2020/12/31 10:38:00;;;;;;;4.15;2.47;;;;;;;6.09;100.00;96738.72;4998042;28;20381;-79
2020/12/31 10:40:27;;;;;;;3.72;2.38;;;;;;;5.78;100.00;96731.72;5008054;28;20052;-78
2020/12/31 10:42:53;;;;;;;5.38;2.97;;;;;;;5.62;100.00;96739.34;4997238;28;20037;-77
2020/12/31 10:45:19;;;;;;;3.70;2.50;;;;;;;5.61;100.00;96727.81;5008693;28;20042;-78
2020/12/31 10:47:46;;;;;;;5.03;2.78;;;;;;;5.38;100.00;96731.59;5010200;28;20401;-78
2020/12/31 10:50:12;;;;;;;7.18;3.10;;;;;;;5.42;100.00;96716.44;5008762;28;20453;-78
2020/12/31 10:52:38;;;;;;;5.53;2.88;;;;;;;5.40;100.00;96728.59;5009316;28;20049;-78
2020/12/31 10:55:05;;;;;;;5.35;2.85;;;;;;;5.27;100.00;96716.00;4973243;28;20076;-78
2020/12/31 10:57:31;;;;;;;4.50;2.80;;;;;;;4.93;100.00;96721.84;4990284;28;20038;-78
2020/12/31 10:59:58;;;;;;;3.95;2.60;;;;;;;4.75;100.00;96707.47;4989222;28;20057;-78
2020/12/31 11:02:24;;;;;;;5.93;2.85;;;;;;;4.68;100.00;96708.97;4988683;28;20046;-76
2020/12/31 11:04:50;;;;;;;5.50;2.97;;;;;;;4.68;100.00;96714.34;5001252;28;20038;-77
2020/12/31 11:07:17;;;;;;;4.32;2.70;;;;;;;4.71;100.00;96698.47;4987776;28;20046;-77
2020/12/31 11:09:43;;;;;;;5.30;3.20;;;;;;;4.77;100.00;96712.56;4994989;28;20064;-77
2020/12/31 11:12:10;;;;;;;5.45;3.13;;;;;;;4.67;100.00;96699.38;5001705;28;20052;-78
2020/12/31 11:14:36;;;;;;;4.80;3.00;;;;;;;4.66;100.00;96687.03;5008146;28;20109;-77
2020/12/31 11:17:02;;;;;;;5.78;3.30;;;;;;;4.49;100.00;96690.31;5009202;28;20050;-77
2020/12/31 11:19:29;;;;;;;5.50;3.13;;;;;;;4.54;100.00;96690.25;4971299;28;20046;-78
2020/12/31 11:21:55;;;;;;;8.88;3.10;;;;;;;4.32;100.00;96682.91;4995068;28;20355;-78
2020/12/31 11:24:21;;;;;;;5.93;2.85;;;;;;;4.32;100.00;96680.22;4996775;28;20099;-77
2020/12/31 11:26:50;;;;;;;5.63;3.08;;;;;;;4.20;100.00;96674.56;5008381;28;20046;-77
2020/12/31 11:29:16;;;;;;;5.32;3.22;;;;;;;4.26;100.00;96676.03;4996482;28;20565;-78
2020/12/31 11:31:42;;;;;;;4.88;3.13;;;;;;;4.24;100.00;96669.41;4975261;28;20056;-77
2020/12/31 11:34:24;;;;;;;4.95;3.00;;;;;;;4.43;100.00;96661.25;5003794;28;20062;-78
2020/12/31 11:36:54;;;;;;;4.50;2.83;;;;;;;4.70;100.00;96662.00;5015737;28;20070;-77
2020/12/31 11:39:21;;;;;;;6.00;3.42;;;;;;;5.12;100.00;96660.81;5006616;28;20042;-77
2020/12/31 11:41:48;;;;;;;5.05;3.00;;;;;;;6.54;100.00;96657.97;5004151;28;20034;-78
2020/12/31 11:44:15;;;;;;;3.60;2.30;;;;;;;8.42;83.78;96655.13;4998582;28;20050;-77
2020/12/31 11:46:45;;;;;;;5.68;2.40;;;;;;;8.98;67.20;96653.06;4998464;28;20490;-78
2020/12/31 11:49:11;;;;;;;3.10;2.15;;;;;;;10.76;59.86;96659.69;5007148;28;20053;-77
2020/12/31 11:51:37;;;;;;;8.25;2.10;;;;;;;10.40;58.76;96648.84;5006197;28;20045;-79
2020/12/31 11:54:04;;;;;;;3.10;2.10;;;;;;;11.23;55.39;96649.88;4989179;28;20049;-77